Time,TemperatureF,DewpointF,PressureIn,WindDirection,WindDirectionDegrees,WindSpeedMPH,WindSpeedGustMPH,Humidity,HourlyPrecipIn,Conditions,Clouds,dailyrainin,SoftwareType,DateUTC
2013-11-10 00:00:00,47.5,28.8,30.26,SW,225,0.0,4.0,48,0.00,,OVC,0.00,VWS V14.01,2013-11-10 05:00:00,
2013-11-10 01:00:00,49.9,28.9,30.24,NNE,22,1.0,8.0,44,0.00,,OVC,0.00,VWS V14.01,2013-11-10 06:00:00,
2013-11-10 02:00:00,48.8,27.3,30.24,North,0,3.0,8.0,43,0.00,,OVC,0.00,VWS V14.01,2013-11-10 07:00:00,
2013-11-10 03:00:00,48.4,27.0,30.23,NNE,22,3.0,10.0,43,0.00,,OVC,0.00,VWS V14.01,2013-11-10 08:00:00,
2013-11-10 04:00:00,48.3,26.3,30.23,North,0,5.0,15.0,42,0.00,,OVC,0.00,VWS V14.01,2013-11-10 09:00:00,
2013-11-10 05:00:00,48.9,24.4,30.25,North,0,6.0,13.0,38,0.00,,OVC,0.00,VWS V14.01,2013-11-10 10:00:00,
2013-11-10 06:00:00,48.5,26.5,30.25,North,0,7.0,15.0,42,0.00,,OVC,0.00,VWS V14.01,2013-11-10 11:00:00,
2013-11-10 07:00:00,48.4,28.0,30.26,North,0,6.0,20.0,45,0.00,,OVC,0.00,VWS V14.01,2013-11-10 12:00:00,
2013-11-10 08:00:00,49.3,29.4,30.27,North,0,5.0,15.0,46,0.00,,OVC,0.00,VWS V14.01,2013-11-10 13:00:00,
2013-11-10 09:00:00,51.4,32.9,30.28,NNE,22,5.0,19.0,49,0.00,,OVC,0.00,VWS V14.01,2013-11-10 14:00:00,
2013-11-10 10:00:00,54.4,33.5,30.28,WNW,292,4.0,13.0,45,0.00,,OVC,0.00,VWS V14.01,2013-11-10 15:00:00,
2013-11-10 11:00:00,57.4,35.7,30.27,WNW,292,2.0,13.0,44,0.00,,OVC,0.00,VWS V14.01,2013-11-10 16:00:00,
2013-11-10 12:00:00,60.3,35.3,30.25,West,270,2.0,8.0,39,0.00,,OVC,0.00,VWS V14.01,2013-11-10 17:00:00,
2013-11-10 13:00:00,64.2,33.8,30.22,NNE,22,2.0,12.0,32,0.00,,OVC,0.00,VWS V14.01,2013-11-10 18:00:00,
2013-11-10 14:00:00,67.0,31.0,30.20,SW,225,2.0,11.0,26,0.00,,OVC,0.00,VWS V14.01,2013-11-10 19:00:00,
2013-11-10 15:00:00,66.1,33.8,30.18,NNE,22,2.0,11.0,30,0.00,,OVC,0.00,VWS V14.01,2013-11-10 20:00:00,
2013-11-10 16:00:00,65.8,30.9,30.18,WNW,292,1.0,11.0,27,0.00,,OVC,0.00,VWS V14.01,2013-11-10 21:00:00,
2013-11-10 17:00:00,62.3,27.9,30.19,WNW,292,1.0,15.0,27,0.00,,OVC,0.00,VWS V14.01,2013-11-10 22:00:00,
2013-11-10 18:00:00,57.5,31.5,30.21,WNW,292,3.0,14.0,37,0.00,,OVC,0.00,VWS V14.01,2013-11-10 23:00:00,
2013-11-10 19:00:00,55.9,32.0,30.22,WNW,292,3.0,14.0,40,0.00,,OVC,0.00,VWS V14.01,2013-11-11 00:00:00,
2013-11-10 20:00:00,54.4,31.2,30.22,North,0,3.0,13.0,41,0.00,,OVC,0.00,VWS V14.01,2013-11-11 01:00:00,
2013-11-10 21:00:00,53.9,30.8,30.22,SW,225,3.0,12.0,41,0.00,,OVC,0.00,VWS V14.01,2013-11-11 02:00:00,
2013-11-10 22:00:00,51.9,32.8,30.22,SW,225,4.0,15.0,48,0.00,,OVC,0.00,VWS V14.01,2013-11-11 03:00:00,
2013-11-10 23:00:00,49.9,27.1,30.24,WNW,292,6.0,18.0,41,0.00,,OVC,0.00,VWS V14.01,2013-11-11 04:00:00,